Řízení letového provozu České republiky
Letiste: LKTB Aktualizace: 24.03.2019 21:11:06  UTC
 METAR LKTB 24.03. 21:00 ...
METAR LKTB 242100Z 33008KT CAVOK 09/05 Q1018 NOSIG RMK REG QNH 1015=
 TAF LKTB 24.03. 17:00 ...
TAF LKTB 241700Z 2418/2600 36008KT CAVOK      BECMG 2418/2420 BKN027      TEMPO 2421/2505 4000 BR BKN014      BECMG 2505/2507 30012KT      TEMPO 2510/2521 32016G32KT 7000 -SHRA BKN017      TEMPO 2521/2600 4500 BR BKN015=